Time;durP1;ratioP1;P1;durP2;ratioP2;P2;SDS_P1;SDS_P2;PMS_P1;PMS_P2;Temp;Humidity;BMP_temperature;BMP_pressure;BME280_temperature;BME280_humidity;BME280_pressure;Samples;Min_cycle;Max_cycle;Signal;HPM_P1;HPM_P2
2023/05/14 00:00:41;;;;;;;7.20;5.80;;;16.40;58.40;;;;;;5023800;28;21049;-84
2023/05/14 00:03:09;;;;;;;6.07;5.07;;;16.50;58.00;;;;;;5006318;28;20450;-84
2023/05/14 00:05:36;;;;;;;7.17;5.83;;;16.40;57.40;;;;;;5026974;28;20464;-83
2023/05/14 00:08:03;;;;;;;6.77;5.30;;;16.40;57.50;;;;;;5022392;28;20448;-83
2023/05/14 00:10:30;;;;;;;6.20;5.10;;;16.60;57.60;;;;;;5048362;28;20461;-82
2023/05/14 00:12:57;;;;;;;7.87;5.60;;;16.70;57.10;;;;;;5030797;28;20971;-84
2023/05/14 00:15:24;;;;;;;5.97;5.20;;;16.80;56.60;;;;;;5041318;28;20448;-83
2023/05/14 00:17:51;;;;;;;5.27;4.83;;;16.80;56.40;;;;;;5032337;28;20448;-81
2023/05/14 00:20:20;;;;;;;6.53;4.80;;;16.90;56.10;;;;;;5033120;28;20465;-82
2023/05/14 00:22:47;;;;;;;6.80;5.73;;;16.90;55.60;;;;;;5049682;28;20456;-83
2023/05/14 00:25:14;;;;;;;6.40;5.77;;;16.90;55.40;;;;;;5013058;28;20462;-82
2023/05/14 00:27:40;;;;;;;9.07;5.63;;;16.90;55.30;;;;;;5015532;28;20458;-84
2023/05/14 00:30:08;;;;;;;6.27;5.20;;;16.90;55.40;;;;;;5013459;28;20466;-83
2023/05/14 00:32:35;;;;;;;6.57;5.50;;;16.80;55.40;;;;;;5015289;28;20445;-83
2023/05/14 00:35:03;;;;;;;7.37;5.77;;;16.60;56.10;;;;;;4998394;28;20462;-82
2023/05/14 00:37:31;;;;;;;7.20;5.43;;;16.40;56.50;;;;;;5013563;28;21050;-83
2023/05/14 00:39:58;;;;;;;5.53;4.97;;;16.20;57.10;;;;;;5005761;28;20469;-82
2023/05/14 00:42:25;;;;;;;8.10;6.00;;;16.10;57.40;;;;;;5026291;28;20453;-80
2023/05/14 00:44:53;;;;;;;7.90;5.30;;;16.10;57.60;;;;;;5030569;28;20445;-83
2023/05/14 00:47:19;;;;;;;8.60;5.70;;;16.20;57.40;;;;;;5024048;28;21255;-83
2023/05/14 00:49:47;;;;;;;6.33;5.30;;;16.10;57.10;;;;;;5003491;28;20831;-82
2023/05/14 00:52:15;;;;;;;9.37;6.13;;;15.80;57.70;;;;;;5021314;28;21841;-82
2023/05/14 00:54:44;;;;;;;6.73;5.77;;;15.80;57.70;;;;;;5032324;28;20449;-85
2023/05/14 00:57:11;;;;;;;6.97;5.50;;;15.80;57.70;;;;;;5016046;28;20445;-83
2023/05/14 00:59:40;;;;;;;7.83;5.60;;;15.90;57.90;;;;;;5029916;28;20572;-83
2023/05/14 01:02:08;;;;;;;6.47;5.60;;;16.00;58.00;;;;;;5007010;28;20534;-83
2023/05/14 01:04:36;;;;;;;8.90;5.60;;;15.70;57.80;;;;;;5013783;28;20576;-81
2023/05/14 01:07:12;;;;;;;6.00;5.03;;;15.30;59.10;;;;;;5022733;28;20641;-81
2023/05/14 01:09:47;;;;;;;6.50;5.37;;;15.50;58.10;;;;;;5024332;28;20476;-82
2023/05/14 01:12:21;;;;;;;7.40;5.50;;;15.50;57.50;;;;;;5030793;28;20456;-81
2023/05/14 01:14:55;;;;;;;7.33;5.80;;;15.40;57.80;;;;;;5010206;28;20467;-81
2023/05/14 01:17:25;;;;;;;8.90;5.20;;;15.40;58.20;;;;;;5005804;28;20506;-82
2023/05/14 01:19:55;;;;;;;8.67;5.77;;;15.40;58.60;;;;;;5034575;28;20516;-83
2023/05/14 01:22:23;;;;;;;6.90;5.40;;;15.60;58.10;;;;;;5006932;28;20444;-82
2023/05/14 01:24:50;;;;;;;6.73;6.07;;;15.80;57.80;;;;;;5032179;28;20449;-83
2023/05/14 01:27:22;;;;;;;10.43;5.80;;;15.90;57.40;;;;;;4999767;28;20495;-82
2023/05/14 01:30:04;;;;;;;10.83;6.20;;;15.90;57.10;;;;;;5025216;28;20474;-82
2023/05/14 01:32:32;;;;;;;5.53;5.00;;;16.00;57.10;;;;;;5013395;28;21060;-83
2023/05/14 01:35:01;;;;;;;6.27;5.27;;;16.00;57.00;;;;;;5032783;28;20479;-83
2023/05/14 01:37:30;;;;;;;6.30;5.57;;;16.00;56.90;;;;;;5007192;28;20456;-82
2023/05/14 01:39:58;;;;;;;12.73;5.10;;;16.00;56.80;;;;;;5005903;28;20567;-82
2023/05/14 01:42:26;;;;;;;7.10;5.00;;;16.00;56.20;;;;;;5048210;28;20450;-82
2023/05/14 01:44:53;;;;;;;6.90;5.50;;;16.00;56.20;;;;;;5006750;28;20500;-82
2023/05/14 01:47:20;;;;;;;5.97;5.40;;;16.00;56.30;;;;;;4997140;28;20453;-83
2023/05/14 01:49:47;;;;;;;7.23;5.20;;;16.00;56.10;;;;;;5007142;28;20460;-83
2023/05/14 01:52:14;;;;;;;7.40;5.67;;;16.00;55.90;;;;;;5027446;28;20454;-83
2023/05/14 01:54:43;;;;;;;7.20;5.83;;;16.00;55.90;;;;;;5025727;28;20446;-83
2023/05/14 01:57:10;;;;;;;7.03;5.20;;;16.00;55.30;;;;;;5006918;28;20448;-82
2023/05/14 01:59:37;;;;;;;8.00;6.00;;;15.90;55.60;;;;;;4999869;28;20475;-83
2023/05/14 02:02:05;;;;;;;11.43;6.03;;;15.90;55.70;;;;;;5031886;28;20464;-83
2023/05/14 02:04:32;;;;;;;7.47;5.50;;;15.90;56.10;;;;;;5029918;28;20485;-82
2023/05/14 02:06:59;;;;;;;9.20;6.00;;;15.90;56.00;;;;;;5021569;28;20438;-84
2023/05/14 02:09:25;;;;;;;7.00;6.23;;;15.90;56.10;;;;;;5014141;28;20472;-82
2023/05/14 02:11:54;;;;;;;9.80;5.30;;;15.90;56.10;;;;;;5023045;28;20449;-83
2023/05/14 02:14:21;;;;;;;5.83;5.13;;;15.90;55.90;;;;;;5017243;28;20477;-82
2023/05/14 02:16:49;;;;;;;8.83;5.57;;;15.80;55.10;;;;;;5015490;28;20510;-82
2023/05/14 02:19:16;;;;;;;7.27;5.47;;;15.60;55.10;;;;;;5020727;28;20484;-83
2023/05/14 02:21:43;;;;;;;6.17;5.57;;;15.50;56.10;;;;;;5020073;28;20452;-82
2023/05/14 02:24:10;;;;;;;6.77;5.27;;;15.50;56.30;;;;;;5029767;28;20449;-84
2023/05/14 02:26:37;;;;;;;7.00;6.13;;;15.50;56.60;;;;;;5024927;28;20452;-82
2023/05/14 02:29:06;;;;;;;8.70;6.03;;;15.60;56.70;;;;;;5021427;28;21041;-83
2023/05/14 02:31:33;;;;;;;7.33;5.13;;;15.60;57.30;;;;;;5023305;28;21214;-84
2023/05/14 02:34:01;;;;;;;8.23;5.63;;;15.60;56.60;;;;;;5014391;28;20562;-83
2023/05/14 02:36:28;;;;;;;7.20;6.27;;;15.60;56.40;;;;;;5037891;28;20468;-82
2023/05/14 02:38:55;;;;;;;7.57;6.50;;;15.60;56.50;;;;;;5028865;28;20460;-82
2023/05/14 02:41:22;;;;;;;6.67;5.60;;;15.60;56.40;;;;;;5043942;28;20457;-83
2023/05/14 02:43:49;;;;;;;7.40;5.60;;;15.50;56.60;;;;;;5021790;28;20557;-82
2023/05/14 02:46:17;;;;;;;5.60;5.10;;;15.30;57.50;;;;;;5021948;28;20437;-82
2023/05/14 02:48:44;;;;;;;6.80;5.47;;;15.30;57.80;;;;;;5017367;28;20460;-82
2023/05/14 02:51:11;;;;;;;5.60;5.10;;;15.30;56.80;;;;;;5048010;28;20519;-83
2023/05/14 02:53:38;;;;;;;7.57;6.00;;;15.30;56.70;;;;;;5012873;28;20438;-83
2023/05/14 02:56:06;;;;;;;6.67;5.70;;;15.30;56.50;;;;;;5006408;28;20456;-82
2023/05/14 02:58:33;;;;;;;20.53;6.87;;;15.20;56.90;;;;;;5007143;28;20461;-80
2023/05/14 03:01:01;;;;;;;7.33;5.73;;;15.20;57.70;;;;;;5026846;28;20859;-82
2023/05/14 03:03:29;;;;;;;71.80;9.17;;;15.30;58.00;;;;;;5014047;28;20441;-82
2023/05/14 03:05:56;;;;;;;17.87;6.87;;;15.30;58.60;;;;;;5021076;28;20449;-81
2023/05/14 03:08:23;;;;;;;23.83;6.80;;;15.40;58.60;;;;;;4998229;28;20453;-82
2023/05/14 03:10:50;;;;;;;17.27;6.47;;;15.40;58.80;;;;;;5029948;28;20465;-82
2023/05/14 03:13:19;;;;;;;24.23;7.97;;;15.40;58.50;;;;;;5013221;28;22103;-81
2023/05/14 03:15:47;;;;;;;7.70;6.03;;;15.20;59.10;;;;;;5005417;28;20453;-81
2023/05/14 03:18:14;;;;;;;7.00;6.10;;;14.90;60.00;;;;;;5048162;28;20446;-83
2023/05/14 03:20:42;;;;;;;12.03;8.20;;;14.20;62.30;;;;;;5018398;28;20469;-83
2023/05/14 03:23:10;;;;;;;9.37;7.27;;;14.10;63.40;;;;;;5033938;28;20448;-83
2023/05/14 03:25:37;;;;;;;8.53;6.20;;;14.50;62.40;;;;;;5027315;28;20464;-82
2023/05/14 03:28:04;;;;;;;11.03;6.87;;;14.80;61.60;;;;;;5034157;28;20962;-82
2023/05/14 03:30:31;;;;;;;10.57;6.60;;;15.00;61.30;;;;;;5029742;28;20468;-83
2023/05/14 03:32:59;;;;;;;8.40;6.17;;;15.00;61.30;;;;;;5019094;28;20827;-83
2023/05/14 03:35:26;;;;;;;6.77;5.97;;;15.20;61.10;;;;;;5022917;28;20548;-83
2023/05/14 03:37:57;;;;;;;15.57;6.80;;;15.30;60.40;;;;;;5017329;28;20444;-80
2023/05/14 03:40:24;;;;;;;7.90;7.10;;;15.30;60.10;;;;;;5043836;28;20473;-83
2023/05/14 03:42:51;;;;;;;9.40;6.77;;;15.40;60.10;;;;;;5017954;28;20839;-81
2023/05/14 03:45:18;;;;;;;8.90;6.60;;;15.30;60.40;;;;;;5021984;28;22895;-83
2023/05/14 03:47:45;;;;;;;9.53;6.13;;;15.10;61.20;;;;;;5035686;28;20441;-84
2023/05/14 03:50:12;;;;;;;9.87;6.30;;;14.80;61.80;;;;;;5052506;28;20456;-82
2023/05/14 03:52:40;;;;;;;6.60;5.80;;;14.90;61.70;;;;;;5032471;28;21374;-82
2023/05/14 03:55:09;;;;;;;8.70;6.27;;;15.00;61.30;;;;;;5015966;28;20544;-83
2023/05/14 03:57:36;;;;;;;7.00;6.30;;;15.10;60.90;;;;;;5008415;28;20444;-83
2023/05/14 04:00:03;;;;;;;8.87;6.00;;;15.10;60.80;;;;;;5014028;28;20484;-83
2023/05/14 04:02:44;;;;;;;9.17;6.53;;;15.10;60.90;;;;;;5031728;28;20445;-82
2023/05/14 04:05:11;;;;;;;10.50;6.50;;;15.20;60.40;;;;;;5013563;28;20793;-83
2023/05/14 04:07:38;;;;;;;7.33;5.93;;;15.30;60.30;;;;;;5031915;28;20456;-81
2023/05/14 04:10:06;;;;;;;9.17;6.03;;;15.30;60.30;;;;;;5025584;28;20455;-82
2023/05/14 04:12:36;;;;;;;8.00;6.10;;;15.40;60.10;;;;;;5025696;28;20579;-83
2023/05/14 04:15:04;;;;;;;8.87;5.93;;;15.50;60.00;;;;;;5031385;28;20465;-83
2023/05/14 04:17:31;;;;;;;8.60;5.90;;;15.50;60.10;;;;;;5035014;28;20966;-84
2023/05/14 04:19:58;;;;;;;6.63;5.70;;;15.40;60.20;;;;;;5014729;28;20473;-83
2023/05/14 04:22:25;;;;;;;8.00;5.67;;;15.40;60.50;;;;;;5017823;28;20444;-83
2023/05/14 04:24:52;;;;;;;10.70;6.60;;;15.40;60.20;;;;;;5034012;28;20446;-81
2023/05/14 04:27:20;;;;;;;9.53;6.30;;;15.50;60.10;;;;;;5016421;28;20448;-85
2023/05/14 04:29:49;;;;;;;6.87;5.43;;;15.50;59.70;;;;;;5024196;28;20462;-82
2023/05/14 04:32:17;;;;;;;8.37;6.70;;;15.50;59.60;;;;;;5030489;28;20559;-83
2023/05/14 04:34:45;;;;;;;8.33;7.03;;;15.60;60.40;;;;;;5016002;28;20480;-84
2023/05/14 04:37:12;;;;;;;7.40;6.03;;;15.60;59.70;;;;;;5029045;28;20507;-83
2023/05/14 04:39:39;;;;;;;8.33;6.00;;;15.70;59.60;;;;;;5017203;28;20478;-83
2023/05/14 04:42:07;;;;;;;9.77;6.37;;;15.60;59.80;;;;;;5041197;28;20480;-83
2023/05/14 04:44:35;;;;;;;9.70;5.90;;;15.50;60.20;;;;;;5008694;28;20445;-83
2023/05/14 04:47:04;;;;;;;6.33;5.73;;;15.40;60.50;;;;;;5032543;28;20820;-83
2023/05/14 04:49:32;;;;;;;7.93;6.07;;;15.50;60.50;;;;;;5034627;28;20469;-83
2023/05/14 04:51:59;;;;;;;6.73;5.50;;;15.50;60.60;;;;;;5040529;28;21027;-82
2023/05/14 04:54:26;;;;;;;8.07;6.20;;;15.30;61.00;;;;;;5015606;28;20797;-84
2023/05/14 04:56:54;;;;;;;7.83;6.53;;;15.40;61.20;;;;;;5034077;28;20449;-82
2023/05/14 04:59:21;;;;;;;9.13;5.27;;;15.40;61.20;;;;;;5010972;28;20493;-83
2023/05/14 05:01:48;;;;;;;9.53;6.37;;;15.60;60.80;;;;;;5023088;28;20477;-82
2023/05/14 05:04:17;;;;;;;7.63;6.30;;;15.70;60.70;;;;;;5033878;28;20480;-82
2023/05/14 05:06:43;;;;;;;8.00;6.60;;;15.60;60.70;;;;;;5047035;28;20488;-82
2023/05/14 05:09:11;;;;;;;7.77;5.90;;;15.30;61.40;;;;;;5048497;28;20453;-80
2023/05/14 05:11:38;;;;;;;7.90;6.27;;;15.30;62.00;;;;;;5010490;28;20448;-79
2023/05/14 05:14:05;;;;;;;7.27;6.00;;;15.50;62.10;;;;;;5031054;28;20582;-80
2023/05/14 05:16:32;;;;;;;9.73;7.30;;;15.50;61.70;;;;;;5007113;28;21177;-80
2023/05/14 05:18:59;;;;;;;7.03;6.33;;;15.60;62.00;;;;;;5015338;28;20455;-81
2023/05/14 05:21:27;;;;;;;7.83;6.07;;;15.70;61.60;;;;;;5032450;28;20483;-82
2023/05/14 05:23:54;;;;;;;8.10;6.43;;;15.70;61.40;;;;;;5025271;28;20456;-82
2023/05/14 05:26:22;;;;;;;7.00;5.90;;;15.60;61.40;;;;;;5024372;28;20449;-81
2023/05/14 05:28:48;;;;;;;8.67;6.73;;;15.60;61.70;;;;;;5025232;28;20445;-79
2023/05/14 05:31:15;;;;;;;7.13;6.43;;;15.70;61.90;;;;;;5018492;28;21172;-81
2023/05/14 05:33:42;;;;;;;8.17;6.87;;;15.80;61.60;;;;;;5040460;28;20467;-80
2023/05/14 05:36:09;;;;;;;12.50;6.57;;;15.90;61.40;;;;;;5030589;28;20446;-81
2023/05/14 05:38:38;;;;;;;9.10;7.13;;;16.00;60.60;;;;;;5005237;28;20453;-82
2023/05/14 05:41:05;;;;;;;9.40;6.23;;;16.10;60.20;;;;;;5005760;28;20481;-80
2023/05/14 05:43:33;;;;;;;8.90;6.53;;;16.00;60.40;;;;;;5020242;28;20558;-81
2023/05/14 05:46:00;;;;;;;8.50;6.13;;;16.00;60.50;;;;;;5019738;28;20499;-80
2023/05/14 05:48:29;;;;;;;7.73;6.00;;;15.90;60.80;;;;;;5023102;28;20575;-79
2023/05/14 05:50:56;;;;;;;8.70;6.27;;;15.80;61.50;;;;;;5033944;28;20581;-79
2023/05/14 05:53:23;;;;;;;9.80;6.20;;;15.70;61.60;;;;;;5015376;28;21859;-81
2023/05/14 05:55:51;;;;;;;9.20;6.73;;;15.80;62.00;;;;;;5041679;28;20460;-81
2023/05/14 05:58:18;;;;;;;7.50;5.90;;;16.10;61.50;;;;;;5006601;28;20462;-80
2023/05/14 06:00:46;;;;;;;7.80;6.27;;;16.10;61.40;;;;;;5013129;28;20472;-82
2023/05/14 06:03:14;;;;;;;7.67;6.10;;;16.10;61.70;;;;;;5013355;28;20539;-81
2023/05/14 06:05:41;;;;;;;10.10;6.73;;;16.00;61.20;;;;;;5020261;28;20514;-81
2023/05/14 06:08:08;;;;;;;6.73;5.60;;;16.10;61.00;;;;;;5031393;28;20457;-79
2023/05/14 06:10:36;;;;;;;7.40;5.33;;;16.10;60.50;;;;;;5024818;28;20985;-81
2023/05/14 06:13:05;;;;;;;6.60;5.23;;;16.00;60.90;;;;;;5018136;28;20457;-78
2023/05/14 06:15:32;;;;;;;17.37;6.00;;;16.10;61.00;;;;;;5028307;28;20453;-81
2023/05/14 06:17:59;;;;;;;7.73;6.07;;;16.40;61.10;;;;;;5032427;28;20453;-80
2023/05/14 06:20:26;;;;;;;8.33;6.40;;;16.60;60.10;;;;;;5012181;28;20481;-81
2023/05/14 06:22:53;;;;;;;10.77;6.90;;;16.80;59.50;;;;;;5044674;28;20464;-81
2023/05/14 06:25:20;;;;;;;9.90;5.87;;;16.60;59.50;;;;;;5014515;28;20457;-81
2023/05/14 06:27:47;;;;;;;9.83;7.07;;;16.70;59.90;;;;;;5024118;28;20454;-79
2023/05/14 06:30:15;;;;;;;7.50;6.67;;;16.90;59.80;;;;;;5034545;28;21025;-82
2023/05/14 06:32:42;;;;;;;6.40;5.73;;;17.10;59.20;;;;;;5033002;28;20449;-83
2023/05/14 06:35:09;;;;;;;6.83;6.20;;;17.30;58.80;;;;;;5048322;28;20458;-80
2023/05/14 06:37:36;;;;;;;7.53;6.07;;;17.30;58.60;;;;;;5018126;28;20464;-81
2023/05/14 06:40:04;;;;;;;7.13;5.20;;;17.20;58.90;;;;;;5003706;28;20948;-80
2023/05/14 06:42:31;;;;;;;6.70;6.00;;;17.20;59.00;;;;;;5022918;28;20462;-80
2023/05/14 06:44:58;;;;;;;7.90;5.97;;;17.20;59.20;;;;;;5027169;28;20458;-79
2023/05/14 06:47:27;;;;;;;7.80;5.60;;;17.40;59.00;;;;;;5017931;28;20547;-80
2023/05/14 06:49:57;;;;;;;6.93;5.70;;;17.60;58.70;;;;;;5014358;28;20461;-81
2023/05/14 06:52:25;;;;;;;7.13;6.00;;;17.50;58.70;;;;;;5033181;28;21419;-78
2023/05/14 06:54:52;;;;;;;8.40;5.70;;;17.40;58.90;;;;;;5026265;28;20536;-82
2023/05/14 06:57:19;;;;;;;5.63;5.13;;;17.20;59.30;;;;;;5017589;28;20987;-80
2023/05/14 06:59:46;;;;;;;7.27;6.50;;;17.30;59.40;;;;;;5025466;28;20570;-78
2023/05/14 07:02:13;;;;;;;6.27;5.67;;;17.40;59.50;;;;;;5029402;28;20500;-82
2023/05/14 07:04:41;;;;;;;8.23;5.93;;;17.70;59.30;;;;;;5051307;28;20448;-79
2023/05/14 07:07:09;;;;;;;5.77;5.20;;;18.10;58.90;;;;;;5033109;28;20440;-80
2023/05/14 07:09:36;;;;;;;5.77;5.00;;;18.20;57.90;;;;;;5043019;28;21049;-81
2023/05/14 07:12:04;;;;;;;5.63;4.87;;;18.50;57.90;;;;;;5034360;28;20462;-81
2023/05/14 07:14:31;;;;;;;6.20;5.33;;;18.60;57.50;;;;;;5033884;28;20479;-82
2023/05/14 07:16:58;;;;;;;7.27;5.57;;;18.60;57.20;;;;;;5034287;28;20524;-84
2023/05/14 07:19:27;;;;;;;5.40;4.90;;;18.50;57.50;;;;;;5032382;28;21348;-79
2023/05/14 07:21:56;;;;;;;4.77;4.37;;;18.70;57.60;;;;;;5025707;28;21589;-78
2023/05/14 07:24:24;;;;;;;7.83;5.93;;;18.90;56.70;;;;;;5017355;28;20448;-79
2023/05/14 07:26:51;;;;;;;6.10;5.50;;;18.90;56.50;;;;;;5017403;28;20452;-81
2023/05/14 07:29:18;;;;;;;5.53;5.00;;;18.90;56.20;;;;;;5030244;28;20468;-81
2023/05/14 07:31:45;;;;;;;8.10;6.13;;;18.80;56.40;;;;;;5018490;28;20477;-82
2023/05/14 07:34:12;;;;;;;7.80;5.73;;;18.70;56.10;;;;;;5004415;28;20445;-79
2023/05/14 07:36:40;;;;;;;6.70;5.90;;;18.70;56.90;;;;;;5005174;28;20449;-80
2023/05/14 07:39:08;;;;;;;7.60;6.00;;;18.80;55.60;;;;;;5031032;28;20436;-79
2023/05/14 07:41:35;;;;;;;6.57;5.67;;;18.90;54.50;;;;;;5032685;28;20491;-80
2023/05/14 07:44:02;;;;;;;5.13;4.63;;;18.90;53.60;;;;;;5042232;28;20455;-80
2023/05/14 07:46:29;;;;;;;6.00;5.40;;;18.90;53.80;;;;;;5041428;28;20538;-79
2023/05/14 07:48:56;;;;;;;6.37;4.47;;;18.90;53.70;;;;;;5032407;28;20634;-80
2023/05/14 07:51:23;;;;;;;5.10;4.60;;;18.90;54.00;;;;;;5032895;28;20444;-80
2023/05/14 07:53:50;;;;;;;6.90;5.27;;;19.00;54.50;;;;;;5034358;28;20452;-80
2023/05/14 07:56:18;;;;;;;5.50;5.00;;;19.00;53.50;;;;;;5021450;28;20487;-80
2023/05/14 07:58:45;;;;;;;6.90;5.60;;;18.90;53.30;;;;;;5034406;28;20818;-80
2023/05/14 08:01:13;;;;;;;6.30;5.70;;;18.80;53.50;;;;;;5019743;28;20543;-80
2023/05/14 08:03:39;;;;;;;6.83;5.50;;;18.60;53.00;;;;;;5048528;28;20473;-78
2023/05/14 08:06:06;;;;;;;5.80;5.20;;;18.90;54.20;;;;;;5031783;28;20440;-80
2023/05/14 08:08:33;;;;;;;6.87;6.10;;;19.10;52.50;;;;;;5030143;28;20564;-83
2023/05/14 08:11:00;;;;;;;5.23;4.73;;;19.10;53.10;;;;;;5048438;28;20469;-80
2023/05/14 08:13:29;;;;;;;8.03;6.20;;;19.30;53.30;;;;;;5033228;28;20985;-81
2023/05/14 08:15:56;;;;;;;6.33;5.73;;;19.50;53.50;;;;;;5032879;28;20817;-82
2023/05/14 08:18:23;;;;;;;5.10;4.60;;;19.60;52.90;;;;;;5025263;28;20452;-81
2023/05/14 08:20:51;;;;;;;7.07;5.20;;;19.60;52.70;;;;;;5032477;28;20472;-80
2023/05/14 08:23:18;;;;;;;6.17;5.53;;;19.70;52.70;;;;;;5013958;28;20539;-81
2023/05/14 08:25:45;;;;;;;5.60;5.10;;;20.00;52.10;;;;;;5022757;28;20989;-81
2023/05/14 08:28:12;;;;;;;6.43;5.43;;;20.00;51.90;;;;;;5016386;28;21018;-81
2023/05/14 08:30:40;;;;;;;6.90;5.33;;;20.10;52.00;;;;;;5020196;28;20515;-80
2023/05/14 08:33:08;;;;;;;4.90;4.40;;;20.20;51.90;;;;;;5017610;28;20485;-81
2023/05/14 08:35:35;;;;;;;9.03;5.30;;;20.10;51.00;;;;;;5023099;28;20448;-81
2023/05/14 08:38:02;;;;;;;6.73;6.03;;;20.00;51.10;;;;;;5034219;28;20851;-79
2023/05/14 08:40:30;;;;;;;10.90;6.00;;;19.80;51.60;;;;;;5028765;28;21110;-80
2023/05/14 08:42:58;;;;;;;7.40;6.00;;;20.00;52.40;;;;;;5018042;28;20480;-81
2023/05/14 08:45:32;;;;;;;6.67;5.97;;;20.00;50.90;;;;;;5022626;28;20448;-81
2023/05/14 08:48:04;;;;;;;8.43;6.30;;;20.00;51.60;;;;;;5051861;28;20972;-81
2023/05/14 08:50:31;;;;;;;6.47;5.77;;;20.40;52.10;;;;;;5024518;28;21430;-82
2023/05/14 08:52:59;;;;;;;7.70;6.60;;;20.30;51.90;;;;;;5026795;28;20499;-81
2023/05/14 08:55:27;;;;;;;8.17;6.60;;;20.10;50.60;;;;;;5023847;28;20465;-82
2023/05/14 08:57:55;;;;;;;7.43;6.00;;;20.20;51.50;;;;;;5030958;28;20449;-81
2023/05/14 09:00:21;;;;;;;5.67;4.47;;;20.30;50.60;;;;;;5049930;28;20860;-80
2023/05/14 09:02:49;;;;;;;7.73;5.80;;;20.30;51.00;;;;;;5033414;28;20511;-79
2023/05/14 09:05:19;;;;;;;6.90;5.80;;;20.30;50.70;;;;;;5022454;28;20437;-81
2023/05/14 09:07:46;;;;;;;8.73;7.10;;;20.40;50.90;;;;;;5021141;28;20938;-82
2023/05/14 09:10:14;;;;;;;7.30;6.03;;;20.40;50.40;;;;;;5013699;28;21039;-78
2023/05/14 09:12:41;;;;;;;7.10;5.30;;;20.10;51.10;;;;;;5006482;28;20970;-81
2023/05/14 09:15:09;;;;;;;6.00;5.40;;;20.20;51.00;;;;;;5014551;28;20469;-82
2023/05/14 09:17:36;;;;;;;6.20;5.23;;;20.30;52.00;;;;;;5030769;28;20528;-80
2023/05/14 09:20:03;;;;;;;8.43;5.73;;;20.50;50.50;;;;;;5015255;28;20470;-80
2023/05/14 09:22:32;;;;;;;5.67;4.90;;;20.20;50.10;;;;;;5023208;28;20457;-80
2023/05/14 09:25:04;;;;;;;5.13;4.63;;;20.20;50.20;;;;;;5023424;28;20441;-80
2023/05/14 09:27:32;;;;;;;5.27;4.70;;;20.40;50.90;;;;;;5035534;28;20459;-82
2023/05/14 09:30:08;;;;;;;6.73;5.13;;;20.20;49.90;;;;;;5009072;28;20835;-80
2023/05/14 09:32:37;;;;;;;5.80;5.17;;;20.00;50.80;;;;;;5020673;28;20457;-79
2023/05/14 09:35:16;;;;;;;6.93;4.90;;;20.20;51.80;;;;;;5030870;28;20484;-80
2023/05/14 09:37:46;;;;;;;5.33;4.83;;;20.30;49.80;;;;;;5031181;28;20492;-83
2023/05/14 09:40:14;;;;;;;10.83;8.73;;;20.50;50.20;;;;;;5024324;28;20466;-83
2023/05/14 09:42:41;;;;;;;5.20;4.70;;;20.70;49.20;;;;;;5049835;28;20518;-82
2023/05/14 09:45:09;;;;;;;5.83;5.27;;;20.60;48.80;;;;;;5024430;28;20452;-80
2023/05/14 09:47:36;;;;;;;6.60;5.80;;;20.60;49.50;;;;;;5052193;28;20528;-80
2023/05/14 09:50:04;;;;;;;5.80;5.17;;;20.90;50.30;;;;;;5033187;28;20970;-81
2023/05/14 09:52:31;;;;;;;5.33;4.83;;;21.10;49.10;;;;;;5006327;28;20541;-83
2023/05/14 09:55:01;;;;;;;4.87;4.33;;;21.30;50.10;;;;;;5011791;28;20449;-81
2023/05/14 09:57:28;;;;;;;5.57;4.83;;;21.20;48.80;;;;;;5016501;28;20457;-82
2023/05/14 09:59:55;;;;;;;5.10;4.57;;;20.90;47.80;;;;;;5014835;28;20562;-81
2023/05/14 10:02:24;;;;;;;5.90;5.30;;;20.90;48.80;;;;;;5039029;28;20481;-79
2023/05/14 10:04:52;;;;;;;5.33;4.40;;;21.00;49.40;;;;;;5031417;28;20649;-82
2023/05/14 10:07:23;;;;;;;6.10;4.67;;;20.80;49.10;;;;;;5016336;28;20442;-80
2023/05/14 10:09:54;;;;;;;5.47;4.97;;;20.80;49.80;;;;;;5049461;28;20564;-80
2023/05/14 10:12:24;;;;;;;5.73;4.80;;;21.00;49.80;;;;;;5016114;28;20448;-81
2023/05/14 10:14:54;;;;;;;6.70;5.00;;;21.10;48.50;;;;;;5032417;28;20499;-81
2023/05/14 10:17:22;;;;;;;5.67;5.13;;;21.00;48.20;;;;;;5025554;28;20445;-82
2023/05/14 10:19:52;;;;;;;6.60;4.87;;;20.90;49.40;;;;;;5024747;28;20468;-81
2023/05/14 10:22:23;;;;;;;5.63;4.93;;;20.80;49.90;;;;;;5049426;28;20469;-81
2023/05/14 10:24:52;;;;;;;6.13;5.33;;;20.70;49.90;;;;;;5032843;28;20961;-82
2023/05/14 10:27:20;;;;;;;5.30;4.87;;;20.80;49.90;;;;;;5048696;28;20884;-79
2023/05/14 10:29:53;;;;;;;5.67;5.00;;;20.70;49.90;;;;;;5035745;28;20508;-83
2023/05/14 10:32:23;;;;;;;5.20;4.70;;;20.60;49.90;;;;;;5026189;28;20522;-79
2023/05/14 10:34:50;;;;;;;5.40;4.90;;;20.40;50.40;;;;;;5040058;28;20450;-80
2023/05/14 10:37:18;;;;;;;5.30;4.57;;;20.50;50.60;;;;;;5042613;28;20458;-80
2023/05/14 10:39:47;;;;;;;5.03;4.30;;;20.70;49.70;;;;;;5020276;28;20480;-83
2023/05/14 10:42:17;;;;;;;4.93;4.43;;;20.70;49.10;;;;;;5056260;28;21075;-83
2023/05/14 10:44:57;;;;;;;6.50;5.30;;;20.90;50.00;;;;;;5054936;28;21529;-83
2023/05/14 10:47:25;;;;;;;7.57;4.90;;;20.70;49.80;;;;;;5010923;28;20452;-83
2023/05/14 10:49:55;;;;;;;6.03;5.43;;;20.90;49.50;;;;;;5021376;28;20479;-82
2023/05/14 10:52:22;;;;;;;5.43;4.70;;;21.00;49.20;;;;;;5036509;28;20452;-82
2023/05/14 10:54:51;;;;;;;5.03;4.53;;;21.10;48.50;;;;;;5034020;28;20449;-80
2023/05/14 10:57:19;;;;;;;5.70;4.27;;;21.20;49.40;;;;;;5025677;28;20434;-83
2023/05/14 10:59:47;;;;;;;5.57;5.07;;;21.20;49.00;;;;;;5050702;28;20479;-83
2023/05/14 11:02:23;;;;;;;6.57;5.40;;;21.00;48.50;;;;;;5034123;28;20466;-82
2023/05/14 11:04:57;;;;;;;6.23;4.63;;;21.00;49.30;;;;;;5052156;28;20452;-82
2023/05/14 11:07:27;;;;;;;6.10;5.50;;;21.10;48.60;;;;;;5022460;28;20544;-82
2023/05/14 11:09:56;;;;;;;6.83;6.10;;;21.30;49.20;;;;;;5021728;28;20484;-83
2023/05/14 11:12:23;;;;;;;7.20;5.30;;;21.40;48.30;;;;;;5013679;28;20445;-80
2023/05/14 11:14:50;;;;;;;5.53;5.00;;;21.60;48.50;;;;;;5016827;28;20444;-81
2023/05/14 11:17:18;;;;;;;5.30;4.80;;;21.60;47.10;;;;;;5034778;28;20440;-82
2023/05/14 11:19:46;;;;;;;6.07;5.20;;;21.40;47.80;;;;;;5018913;28;21004;-81
2023/05/14 11:22:13;;;;;;;6.13;5.00;;;21.30;47.90;;;;;;5037713;28;20476;-80
2023/05/14 11:24:40;;;;;;;6.70;5.43;;;21.40;47.80;;;;;;5012422;28;20988;-79
2023/05/14 11:27:08;;;;;;;7.60;4.47;;;21.30;48.00;;;;;;5017098;28;20432;-80
2023/05/14 11:29:35;;;;;;;5.87;4.97;;;21.40;47.20;;;;;;5033538;28;20947;-79
2023/05/14 11:32:05;;;;;;;4.27;3.87;;;21.90;48.30;;;;;;5030493;28;20455;-80
2023/05/14 11:34:32;;;;;;;4.37;3.97;;;22.30;47.70;;;;;;5015094;28;20983;-80
2023/05/14 11:37:03;;;;;;;4.70;4.30;;;22.50;45.80;;;;;;5034697;28;20817;-82
2023/05/14 11:39:31;;;;;;;5.63;4.50;;;22.30;46.60;;;;;;5031448;28;20511;-79
2023/05/14 11:41:58;;;;;;;5.13;4.63;;;22.10;45.00;;;;;;5009890;28;22138;-83
2023/05/14 11:44:25;;;;;;;4.63;4.03;;;22.00;46.30;;;;;;5034312;28;20539;-84
2023/05/14 11:46:56;;;;;;;5.33;4.50;;;22.00;46.40;;;;;;5015606;28;20487;-82
2023/05/14 11:49:24;;;;;;;5.10;4.37;;;21.90;46.80;;;;;;5025312;28;20855;-81
2023/05/14 11:51:51;;;;;;;5.03;4.53;;;21.80;46.00;;;;;;5019057;28;20453;-82
2023/05/14 11:54:19;;;;;;;7.40;4.93;;;22.10;46.30;;;;;;5018181;28;20536;-83
2023/05/14 11:56:51;;;;;;;8.63;4.40;;;22.20;46.20;;;;;;5000480;28;20557;-83
2023/05/14 11:59:18;;;;;;;4.60;4.20;;;22.70;45.00;;;;;;5013754;28;20460;-83
2023/05/14 12:01:45;;;;;;;4.10;3.70;;;22.90;44.40;;;;;;5022187;28;20445;-82
2023/05/14 12:04:13;;;;;;;4.57;4.00;;;22.90;44.50;;;;;;4999532;28;20477;-80
2023/05/14 12:06:40;;;;;;;4.50;3.80;;;23.20;45.10;;;;;;4999443;28;20457;-81
2023/05/14 12:09:07;;;;;;;4.30;3.90;;;22.90;44.50;;;;;;5036986;28;20460;-79
2023/05/14 12:11:37;;;;;;;4.07;3.70;;;22.70;44.80;;;;;;5008499;28;20453;-83
2023/05/14 12:14:11;;;;;;;4.97;3.90;;;22.80;44.50;;;;;;5008315;28;20807;-82
2023/05/14 12:16:41;;;;;;;3.80;3.40;;;23.20;43.50;;;;;;5045786;28;20507;-83
2023/05/14 12:19:10;;;;;;;4.17;3.77;;;23.20;42.70;;;;;;5011671;28;20882;-81
2023/05/14 12:21:38;;;;;;;4.60;3.63;;;23.10;42.10;;;;;;5020927;28;20457;-82
2023/05/14 12:24:08;;;;;;;3.90;3.60;;;23.00;43.00;;;;;;5006978;28;20469;-82
2023/05/14 12:26:38;;;;;;;4.27;3.87;;;23.10;44.90;;;;;;5052455;28;20452;-82
2023/05/14 12:29:06;;;;;;;4.90;3.77;;;22.90;42.70;;;;;;5033688;28;20450;-82
2023/05/14 12:31:35;;;;;;;3.67;3.37;;;23.00;45.00;;;;;;5032585;28;22642;-80
2023/05/14 12:34:02;;;;;;;3.90;3.27;;;23.30;43.90;;;;;;5034247;28;20463;-82
2023/05/14 12:36:31;;;;;;;4.00;3.40;;;23.40;42.90;;;;;;5024643;28;20445;-81
2023/05/14 12:39:00;;;;;;;3.90;3.50;;;23.70;43.80;;;;;;5017641;28;20449;-81
2023/05/14 12:41:27;;;;;;;3.70;3.40;;;23.80;43.20;;;;;;5033615;28;20548;-79
2023/05/14 12:43:56;;;;;;;3.33;3.03;;;23.80;41.70;;;;;;5025611;28;20465;-81
2023/05/14 12:46:23;;;;;;;3.60;2.90;;;24.00;41.40;;;;;;5024125;28;20454;-79
2023/05/14 12:48:50;;;;;;;3.90;3.03;;;24.00;40.60;;;;;;5034558;28;20884;-82